Terminal Aerodrome Forecast
Issued by NWS Wilmington, OH

Current Version | Previous Version | Text Only | Print | Product List | Glossary Off
Versions: 1 2 3 4 5 6 7 8 9 10 11 12 13 14 15 16 17 18 19 20 21 22 23 24 25 26 27 28 29

000
FTUS41 KILN 200800 AAA
TAFILN
TAF AMD
KILN 200853Z 2009/2106 07003KT 1 1/2SM BR VCSH SCT004
      TEMPO 2009/2010 1/2SM FG VV004
     FM201000 07003KT 5SM BR OVC025
     FM201400 11004KT P6SM OVC025
     FM201800 13006KT P6SM OVC025
     FM210100 VRB03KT P6SM BKN025=

USA.gov is the U.S. government's official web portal to all federal, state and local government web resources and services.